»·PEaware :: AUZ081 KONT-KVCV

AUZ081 :: KONT-KVCV

FLIGHT INFORMATION

Flight Status: Arrived
Operator:
Australian Airlines
More flights by this operator :: More flights under this callsign
Pilot: Kim E. (65)
Aircraft: AÉROSPATIALE ATR-72
(AT72)
More flights by this aircraft type
Origin: KONT Ontario Intl
United States
Destination: KVCV Socal Logistics
United States
More flights between these airports :: More routes between these airports
Route: +PDZ V442 APLES
File this flight plan on PilotEdge
Remarks: / V /
Altitude:
(Current/Filed)
17,000ft
Speed:
(Current/Filed)
285kts
Departed: 02-May-13 05:53 PM
Arrived: 02-May-13 06:16 PM
Distance/Time
Traveled:
34nm/0:23
Distance/Time
To Go:
Arrived

Flight Plot

Page will automatically refresh every two minutes.


Map Options




Map Legend


Flown Route
Filed Route
Departure Airport
Arrival Airport
Navaid (VOR, NDB)
Fix

Horizontal Profiles

Position Reports

Time Latitude Longitude Heading Altitude Ground
Speed
02-May-13 17:09 34.060668 -117.600405 69 950ft 0kts
02-May-13 17:10 34.060668 -117.600405 69 950ft 0kts
02-May-13 17:11 34.060668 -117.600405 69 950ft 0kts
02-May-13 17:12 34.060668 -117.600405 69 950ft 0kts
02-May-13 17:13 34.060668 -117.600405 69 950ft 0kts
02-May-13 17:14 34.060668 -117.600405 69 950ft 0kts
02-May-13 17:15 34.060668 -117.600405 69 950ft 0kts
02-May-13 17:16 34.060668 -117.600405 69 950ft 0kts
02-May-13 17:17 34.060668 -117.600405 69 950ft 0kts
02-May-13 17:18 34.060668 -117.600405 69 950ft 0kts
02-May-13 17:19 34.060668 -117.600405 69 950ft 0kts
02-May-13 17:20 34.060668 -117.600405 69 950ft 0kts
02-May-13 17:21 34.060668 -117.600405 69 950ft 0kts
02-May-13 17:22 34.060668 -117.600405 69 950ft 0kts
02-May-13 17:23 34.060668 -117.600405 69 950ft 0kts
02-May-13 17:24 34.060668 -117.600405 69 950ft 0kts
02-May-13 17:25 34.060668 -117.600405 69 950ft 0kts
02-May-13 17:26 34.060668 -117.600405 69 950ft 0kts
02-May-13 17:27 34.060668 -117.600405 69 950ft 0kts
02-May-13 17:28 34.060668 -117.600405 69 950ft 0kts
02-May-13 17:29 34.060668 -117.600405 69 950ft 0kts
02-May-13 17:30 34.060668 -117.600405 69 950ft 0kts
02-May-13 17:31 34.060668 -117.600405 69 950ft 0kts
02-May-13 17:32 34.060668 -117.600403 69 950ft 0kts
02-May-13 17:33 34.060668 -117.600402 69 950ft 0kts
02-May-13 17:34 34.060668 -117.600402 69 950ft 0kts
02-May-13 17:35 34.060668 -117.600402 69 950ft 0kts
02-May-13 17:36 34.060668 -117.600402 69 950ft 0kts
02-May-13 17:37 34.060503 -117.600939 69 950ft 2kts
02-May-13 17:38 34.060418 -117.601213 69 950ft 0kts
02-May-13 17:39 34.060418 -117.601213 69 950ft 0kts
02-May-13 17:40 34.060418 -117.601213 69 950ft 0kts
02-May-13 17:41 34.060418 -117.601213 69 950ft 0kts
02-May-13 17:42 34.060418 -117.601213 69 950ft 0kts
02-May-13 17:43 34.060418 -117.601213 69 950ft 0kts
02-May-13 17:44 34.059433 -117.600176 149 950ft 0kts
02-May-13 17:45 34.058212 -117.599973 181 950ft 6kts
02-May-13 17:46 34.057915 -117.605328 269 950ft 20kts
02-May-13 17:47 34.057890 -117.609268 269 950ft 3kts
02-May-13 17:48 34.057885 -117.610697 269 950ft 3kts
02-May-13 17:49 34.057868 -117.614089 272 950ft 20kts
02-May-13 17:50 34.057925 -117.620118 270 950ft 4kts
02-May-13 17:51 34.057924 -117.621883 268 950ft 6kts
02-May-13 17:52 34.057489 -117.622405 180 950ft 3kts
02-May-13 17:53 34.056882 -117.618755 88 950ft 68kts
02-May-13 17:54 34.056422 -117.577273 94 2057ft 165kts
02-May-13 17:55 34.053165 -117.512825 89 3647ft 207kts
02-May-13 17:56 34.051379 -117.439096 89 4010ft 250kts
02-May-13 17:57 34.077808 -117.361853 35 4111ft 261kts
02-May-13 17:58 34.141521 -117.330968 13 5649ft 236kts
02-May-13 17:59 34.203834 -117.319506 3 7442ft 219kts
02-May-13 18:00 34.262291 -117.310887 14 9219ft 209kts
02-May-13 18:01 34.321848 -117.289541 27 9864ft 245kts
02-May-13 18:02 34.385125 -117.248956 28 10110ft 260kts
02-May-13 18:03 34.454633 -117.206606 27 9181ft 275kts
02-May-13 18:04 34.515554 -117.170308 21 8994ft 220kts
02-May-13 18:05 34.573385 -117.188316 342 8360ft 226kts
02-May-13 18:06 34.630827 -117.213621 342 7930ft 208kts
02-May-13 18:07 34.679870 -117.235847 342 7933ft 173kts
02-May-13 18:08 34.713394 -117.273992 251 7149ft 181kts
02-May-13 18:09 34.672640 -117.297061 192 5459ft 185kts
02-May-13 18:10 34.635566 -117.324897 222 4120ft 134kts
02-May-13 18:11 34.604695 -117.337117 170 3549ft 115kts
02-May-13 18:12 34.592738 -117.327607 299 3695ft 127kts
02-May-13 18:13 34.622123 -117.350497 348 4307ft 139kts
02-May-13 18:14 34.649473 -117.379310 275 3941ft 136kts
02-May-13 18:15 34.616404 -117.387342 170 3016ft 135kts
02-May-13 18:16 34.595141 -117.386466 174 2891ft 14kts
02-May-13 18:17 34.594267 -117.384843 91 2891ft 0kts
02-May-13 18:18 34.594267 -117.384838 91 2891ft 0kts

Navigation Log

Ident Type
Flight plan parsing failed, navigation log unavailable